Time;durP1;ratioP1;P1;durP2;ratioP2;P2;SDS_P1;SDS_P2;PMS_P1;PMS_P2;Temp;Humidity;BMP_temperature;BMP_pressure;BME280_temperature;BME280_humidity;BME280_pressure;Samples;Min_cycle;Max_cycle;Signal;HPM_P1;HPM_P2
2022/03/21 00:01:56;;;;;;;84.28;47.28;;;3.70;99.90;;;;;;4955017;28;20152;-77
2022/03/21 00:04:23;;;;;;;86.65;48.45;;;3.70;99.90;;;;;;4972538;28;20433;-77
2022/03/21 00:06:49;;;;;;;83.72;49.33;;;3.70;99.90;;;;;;4955607;28;20055;-78
2022/03/21 00:09:16;;;;;;;90.07;48.85;;;3.70;99.90;;;;;;4955087;28;20065;-78
2022/03/21 00:11:42;;;;;;;91.28;50.13;;;3.80;99.90;;;;;;4955143;28;20047;-78
2022/03/21 00:14:11;;;;;;;84.43;48.33;;;3.80;99.90;;;;;;4955146;28;20413;-78
2022/03/21 00:16:38;;;;;;;87.45;50.20;;;3.80;99.90;;;;;;4972610;28;20149;-77
2022/03/21 00:19:06;;;;;;;84.95;48.55;;;3.80;99.90;;;;;;4955394;28;20082;-77
2022/03/21 00:21:35;;;;;;;77.95;45.80;;;3.80;99.90;;;;;;4939561;28;20070;-77
2022/03/21 00:24:02;;;;;;;83.82;48.22;;;3.80;99.90;;;;;;4956778;28;20623;-78
2022/03/21 00:26:30;;;;;;;78.72;45.97;;;3.80;99.90;;;;;;4959067;28;20086;-78
2022/03/21 00:29:05;;;;;;;90.95;49.05;;;3.80;99.90;;;;;;4927165;28;20513;-78
2022/03/21 00:31:30;;;;;;;83.57;47.85;;;3.80;99.90;;;;;;4959180;28;20059;-78
2022/03/21 00:33:56;;;;;;;84.03;48.28;;;3.80;99.90;;;;;;4958922;28;20055;-77
2022/03/21 00:36:22;;;;;;;83.25;48.75;;;3.80;99.90;;;;;;4958435;28;20058;-76
2022/03/21 00:38:53;;;;;;;85.03;47.50;;;3.80;99.90;;;;;;4958801;28;20054;-76
2022/03/21 00:41:25;;;;;;;84.70;47.42;;;3.80;99.90;;;;;;4958779;28;20046;-77
2022/03/21 00:43:52;;;;;;;88.95;47.67;;;3.80;99.90;;;;;;4974708;28;20054;-77
2022/03/21 00:46:18;;;;;;;96.95;50.17;;;3.80;99.90;;;;;;4958619;28;20494;-77
2022/03/21 00:48:44;;;;;;;90.72;50.03;;;3.80;99.90;;;;;;4958382;28;20057;-77
2022/03/21 00:51:17;;;;;;;79.88;47.22;;;3.80;99.90;;;;;;4957634;28;20516;-77
2022/03/21 00:53:43;;;;;;;86.07;48.85;;;3.70;99.90;;;;;;4957836;28;20146;-78
2022/03/21 00:56:09;;;;;;;86.72;49.38;;;3.80;99.90;;;;;;4957913;28;20138;-77
2022/03/21 00:58:34;;;;;;;90.20;50.10;;;3.80;99.90;;;;;;4958155;28;20142;-78
2022/03/21 01:01:10;;;;;;;90.00;51.05;;;3.70;99.90;;;;;;4943081;28;20082;-77
2022/03/21 01:03:36;;;;;;;84.55;48.63;;;3.70;99.90;;;;;;4958639;28;20055;-77
2022/03/21 01:06:01;;;;;;;83.38;49.70;;;3.70;99.90;;;;;;4941176;28;20074;-77
2022/03/21 01:08:27;;;;;;;88.82;47.72;;;3.70;99.90;;;;;;4942143;28;20054;-77
2022/03/21 01:10:53;;;;;;;94.85;50.47;;;3.60;99.90;;;;;;4957969;28;20062;-78
2022/03/21 01:13:21;;;;;;;88.88;49.95;;;3.60;99.90;;;;;;4958421;28;20491;-77
2022/03/21 01:15:49;;;;;;;92.25;52.08;;;3.60;99.90;;;;;;4942474;28;20399;-77
2022/03/21 01:18:15;;;;;;;87.00;48.28;;;3.60;99.90;;;;;;4941853;28;20109;-77
2022/03/21 01:20:57;;;;;;;87.38;48.92;;;3.50;99.90;;;;;;4942181;28;20059;-77
2022/03/21 01:23:23;;;;;;;84.68;49.13;;;3.50;99.90;;;;;;4958069;28;20058;-77
2022/03/21 01:25:50;;;;;;;88.10;49.80;;;3.50;99.90;;;;;;4974608;28;20057;-77
2022/03/21 01:28:48;;;;;;;89.30;49.90;;;3.40;99.90;;;;;;4906114;29;20527;-77
2022/03/21 01:31:28;;;;;;;95.75;48.72;;;3.40;99.90;;;;;;4890367;29;20051;-78
2022/03/21 01:33:56;;;;;;;92.88;49.58;;;3.40;99.90;;;;;;4918603;29;20435;-77
2022/03/21 01:36:22;;;;;;;96.30;51.85;;;3.40;99.90;;;;;;4902540;29;20188;-78
2022/03/21 01:38:48;;;;;;;88.85;51.45;;;3.40;99.90;;;;;;4902235;29;20142;-78
2022/03/21 01:41:19;;;;;;;100.22;53.55;;;3.40;99.90;;;;;;4918469;29;20066;-77
2022/03/21 01:44:14;;;;;;;116.03;52.10;;;3.30;99.90;;;;;;4902702;29;20082;-77
2022/03/21 01:46:51;;;;;;;94.03;50.40;;;3.40;99.90;;;;;;4901963;29;20094;-77
2022/03/21 01:49:17;;;;;;;90.38;50.10;;;3.40;99.90;;;;;;4918463;29;20102;-78
2022/03/21 01:51:45;;;;;;;90.85;51.38;;;3.30;99.90;;;;;;4901935;28;20617;-77
2022/03/21 01:57:19;;;;;;;88.35;48.70;;;3.30;99.90;;;;;;4861519;29;20141;-78
2022/03/21 02:00:06;;;;;;;101.85;52.92;;;3.20;99.90;;;;;;4861994;29;20053;-77
2022/03/21 02:02:33;;;;;;;91.80;48.92;;;3.20;99.90;;;;;;4824879;29;20114;-78
2022/03/21 02:04:59;;;;;;;88.63;46.85;;;3.20;99.90;;;;;;4825060;29;20138;-77
2022/03/21 02:07:25;;;;;;;95.75;50.63;;;3.20;99.90;;;;;;4824794;29;20148;-76
2022/03/21 02:09:54;;;;;;;96.20;53.03;;;3.20;99.90;;;;;;4839277;29;20061;-77
2022/03/21 02:12:20;;;;;;;92.22;50.95;;;3.30;99.90;;;;;;4834022;29;20541;-77
2022/03/21 02:14:47;;;;;;;98.30;51.42;;;3.30;99.90;;;;;;4864337;29;20491;-77
2022/03/21 02:17:21;;;;;;;93.40;52.17;;;3.30;99.90;;;;;;4879940;29;20065;-78
2022/03/21 02:19:51;;;;;;;105.20;54.92;;;3.30;99.90;;;;;;4879949;29;20108;-78
2022/03/21 02:23:05;;;;;;;93.05;51.33;;;3.30;99.90;;;;;;4882449;29;20093;-78
2022/03/21 02:25:42;;;;;;;94.20;49.63;;;3.30;99.90;;;;;;4879641;29;20408;-78
2022/03/21 02:28:12;;;;;;;94.78;53.20;;;3.30;99.90;;;;;;4909195;29;20071;-77
2022/03/21 02:30:57;;;;;;;96.40;51.42;;;3.30;99.90;;;;;;4921398;29;20086;-77
2022/03/21 02:33:46;;;;;;;106.28;51.88;;;3.30;99.90;;;;;;4918279;29;20052;-77
2022/03/21 02:36:25;;;;;;;95.95;51.08;;;3.30;99.90;;;;;;4882907;29;20060;-78
2022/03/21 02:38:52;;;;;;;90.72;51.22;;;3.20;99.90;;;;;;4899012;29;20083;-78
2022/03/21 02:41:21;;;;;;;101.95;53.40;;;3.20;99.90;;;;;;4898463;29;20084;-78
2022/03/21 02:44:14;;;;;;;103.70;55.20;;;3.10;99.90;;;;;;4898549;29;20087;-78
2022/03/21 02:47:07;;;;;;;97.75;52.17;;;3.10;99.90;;;;;;4890314;29;20457;-78
2022/03/21 02:49:34;;;;;;;98.85;49.63;;;3.10;99.90;;;;;;4898425;29;20500;-78
2022/03/21 02:52:04;;;;;;;95.78;51.47;;;3.00;99.90;;;;;;4913789;29;20056;-78
2022/03/21 02:54:30;;;;;;;98.15;51.35;;;3.00;99.90;;;;;;4898246;29;20133;-78
2022/03/21 02:57:22;;;;;;;98.97;52.42;;;3.00;99.90;;;;;;4882317;29;20067;-78
2022/03/21 02:59:48;;;;;;;95.43;49.08;;;2.90;99.90;;;;;;4879357;29;20088;-78
2022/03/21 03:02:16;;;;;;;104.75;54.83;;;2.90;99.90;;;;;;4862651;29;20150;-77
2022/03/21 03:04:46;;;;;;;99.60;51.88;;;2.90;99.90;;;;;;4845196;29;20052;-78
2022/03/21 03:07:15;;;;;;;98.68;52.25;;;2.90;99.90;;;;;;4886286;29;20524;-78
2022/03/21 03:09:40;;;;;;;90.47;48.17;;;2.80;99.90;;;;;;4879244;29;20048;-78
2022/03/21 03:12:08;;;;;;;103.95;51.75;;;2.90;99.90;;;;;;4893058;29;20112;-78
2022/03/21 03:14:35;;;;;;;88.55;49.78;;;2.80;99.90;;;;;;4910548;29;20052;-77
2022/03/21 03:17:01;;;;;;;99.40;52.65;;;2.80;99.90;;;;;;4894588;29;20135;-78
2022/03/21 03:19:30;;;;;;;98.95;48.03;;;2.80;99.90;;;;;;4894648;29;20056;-77
2022/03/21 03:22:17;;;;;;;101.03;51.53;;;2.80;99.90;;;;;;4863553;29;20076;-78
2022/03/21 03:24:43;;;;;;;89.65;46.85;;;2.80;99.90;;;;;;4878969;29;20044;-78
2022/03/21 03:27:10;;;;;;;94.78;49.00;;;2.70;99.90;;;;;;4879152;29;20214;-77
2022/03/21 03:29:35;;;;;;;91.50;48.30;;;2.70;99.90;;;;;;4878823;29;20052;-77
2022/03/21 03:32:03;;;;;;;99.47;51.40;;;2.70;99.90;;;;;;4878788;29;20056;-78
2022/03/21 03:34:34;;;;;;;98.90;48.33;;;2.70;99.90;;;;;;4879202;29;20052;-78
2022/03/21 03:37:00;;;;;;;95.38;49.78;;;2.70;99.90;;;;;;4878680;29;20060;-77
2022/03/21 03:39:27;;;;;;;92.40;48.95;;;2.70;99.90;;;;;;4910378;29;20053;-78
2022/03/21 03:41:55;;;;;;;93.20;48.95;;;2.70;99.90;;;;;;4892567;29;20155;-78
2022/03/21 03:44:27;;;;;;;98.22;50.05;;;2.70;99.90;;;;;;4878507;29;20546;-78
2022/03/21 03:47:13;;;;;;;95.03;47.83;;;2.70;99.90;;;;;;4878664;29;20052;-77
2022/03/21 03:49:40;;;;;;;95.68;48.85;;;2.70;99.90;;;;;;4863076;29;20091;-77
2022/03/21 03:52:06;;;;;;;97.60;47.92;;;2.70;99.90;;;;;;4878452;29;20045;-77
2022/03/21 03:54:33;;;;;;;93.35;47.22;;;2.70;99.90;;;;;;4878573;29;20057;-77
2022/03/21 03:56:58;;;;;;;92.25;47.33;;;2.70;99.90;;;;;;4878158;29;20059;-77
2022/03/21 03:59:24;;;;;;;92.15;48.03;;;2.70;99.90;;;;;;4880372;29;20067;-78
2022/03/21 04:01:50;;;;;;;94.00;46.65;;;2.70;99.90;;;;;;4898648;29;20056;-78
2022/03/21 04:04:26;;;;;;;94.68;49.58;;;2.70;99.90;;;;;;4924455;29;20059;-77
2022/03/21 04:06:53;;;;;;;96.32;48.03;;;2.70;99.90;;;;;;4939547;29;20058;-78
2022/03/21 04:09:18;;;;;;;88.05;44.38;;;2.70;99.90;;;;;;4956476;29;20119;-77
2022/03/21 04:11:51;;;;;;;92.03;47.03;;;2.70;99.90;;;;;;4940024;29;20565;-77
2022/03/21 04:14:17;;;;;;;89.90;45.53;;;2.70;99.90;;;;;;4940213;29;20085;-78
2022/03/21 04:16:45;;;;;;;91.75;45.05;;;2.60;99.90;;;;;;4923890;29;20175;-77
2022/03/21 04:19:12;;;;;;;88.28;44.90;;;2.70;99.90;;;;;;4939784;29;20141;-77
2022/03/21 04:21:46;;;;;;;83.50;43.05;;;2.70;99.90;;;;;;4939657;29;20055;-77
2022/03/21 04:24:16;;;;;;;87.72;43.38;;;2.70;99.90;;;;;;4939098;29;20566;-77
2022/03/21 04:26:41;;;;;;;91.30;44.67;;;2.70;99.90;;;;;;4939085;29;20058;-77
2022/03/21 04:29:07;;;;;;;98.55;41.85;;;2.70;99.90;;;;;;4939231;29;20240;-78
2022/03/21 04:31:40;;;;;;;90.57;43.15;;;2.80;99.90;;;;;;4957245;29;20062;-77
2022/03/21 04:34:05;;;;;;;84.93;41.90;;;2.80;99.90;;;;;;4924065;29;20062;-78
2022/03/21 04:36:33;;;;;;;95.00;44.58;;;2.70;99.90;;;;;;4939611;29;20093;-78
2022/03/21 04:38:59;;;;;;;84.00;40.53;;;2.80;99.90;;;;;;4939856;29;20083;-78
2022/03/21 04:41:28;;;;;;;88.63;43.25;;;2.70;99.90;;;;;;4955525;29;20047;-78
2022/03/21 04:43:55;;;;;;;89.15;41.33;;;2.70;99.90;;;;;;4923971;29;20117;-77
2022/03/21 04:46:39;;;;;;;;;;;2.70;99.90;;;;;;4942608;29;20094;-76
2022/03/21 04:49:05;;;;;;;79.50;39.83;;;2.70;99.90;;;;;;4971556;28;19926;-77
2022/03/21 04:51:58;;;;;;;80.93;39.42;;;2.60;99.90;;;;;;4937905;29;20058;-76
2022/03/21 04:54:28;;;;;;;80.57;39.70;;;2.70;99.90;;;;;;4935087;29;20298;-76
2022/03/21 04:56:56;;;;;;;79.80;39.20;;;2.60;99.90;;;;;;4918249;29;20209;-77
2022/03/21 04:59:27;;;;;;;75.68;39.13;;;2.60;99.90;;;;;;4919142;29;20083;-76
2022/03/21 05:02:17;;;;;;;78.50;37.85;;;2.60;99.90;;;;;;4933561;29;20078;-76
2022/03/21 05:04:43;;;;;;;86.50;39.10;;;2.60;99.90;;;;;;4918845;29;20054;-76
2022/03/21 05:07:14;;;;;;;84.70;39.90;;;2.50;99.90;;;;;;4918725;29;20048;-77
2022/03/21 05:10:00;;;;;;;78.82;36.90;;;2.60;99.90;;;;;;4921299;29;20051;-78
2022/03/21 05:12:30;;;;;;;83.53;39.05;;;2.60;99.90;;;;;;4903600;29;20392;-78
2022/03/21 05:14:56;;;;;;;82.38;38.47;;;2.60;99.90;;;;;;4934715;29;20070;-77
2022/03/21 05:17:22;;;;;;;82.07;39.65;;;2.60;99.90;;;;;;4918360;29;20055;-77
2022/03/21 05:19:48;;;;;;;83.00;39.70;;;2.50;99.90;;;;;;4934643;29;20047;-78
2022/03/21 05:22:14;;;;;;;74.65;37.75;;;2.60;99.90;;;;;;4918069;29;20423;-77
2022/03/21 05:36:10;;;;;;;66.03;33.43;;;2.40;99.90;;;;;;4885146;29;20496;-78
2022/03/21 05:38:36;;;;;;;79.70;39.42;;;2.40;99.90;;;;;;4880863;29;20057;-78
2022/03/21 05:41:03;;;;;;;75.45;35.92;;;2.40;99.90;;;;;;4880669;29;20108;-77
2022/03/21 05:43:31;;;;;;;82.38;38.90;;;2.40;99.90;;;;;;4880547;29;20103;-76
2022/03/21 05:46:00;;;;;;;71.22;33.47;;;2.40;99.90;;;;;;4880410;29;20053;-78
2022/03/21 05:51:15;;;;;;;72.72;33.15;;;2.40;99.90;;;;;;4867577;29;20175;-78
2022/03/21 05:53:41;;;;;;;70.93;34.83;;;2.40;99.90;;;;;;4880490;29;20053;-78
2022/03/21 05:56:14;;;;;;;64.32;32.22;;;2.40;99.90;;;;;;4895348;29;20476;-77
2022/03/21 05:58:40;;;;;;;76.60;35.55;;;2.40;99.90;;;;;;4895387;29;20061;-77
2022/03/21 06:01:12;;;;;;;73.05;34.45;;;2.40;99.90;;;;;;4872258;29;20048;-77
2022/03/21 06:03:39;;;;;;;69.90;33.08;;;2.40;99.90;;;;;;4899569;29;20058;-77
2022/03/21 06:06:08;;;;;;;64.85;32.53;;;2.50;99.90;;;;;;4898655;29;20052;-78
2022/03/21 06:08:33;;;;;;;70.93;30.83;;;2.40;99.90;;;;;;4898829;29;20148;-78
2022/03/21 06:11:05;;;;;;;60.53;32.28;;;2.40;99.90;;;;;;4931094;29;20134;-78
2022/03/21 06:13:32;;;;;;;58.85;31.40;;;2.50;99.90;;;;;;4955334;29;20058;-78
2022/03/21 06:16:03;;;;;;;65.35;31.55;;;2.50;99.90;;;;;;4922163;29;20051;-77
2022/03/21 06:18:30;;;;;;;67.25;31.25;;;2.50;99.90;;;;;;4922102;29;20039;-77
2022/03/21 06:20:56;;;;;;;68.90;32.15;;;2.50;99.90;;;;;;4937012;29;20055;-77
2022/03/21 06:23:22;;;;;;;69.63;31.52;;;2.60;99.90;;;;;;4953157;29;20138;-78
2022/03/21 06:25:58;;;;;;;62.25;30.48;;;2.50;99.90;;;;;;4937478;29;20098;-78
2022/03/21 06:28:26;;;;;;;65.72;32.58;;;2.60;99.90;;;;;;4953826;29;20047;-77
2022/03/21 06:30:53;;;;;;;67.85;33.22;;;2.70;99.90;;;;;;4953465;28;20047;-77
2022/03/21 06:33:38;;;;;;;66.43;31.73;;;2.70;99.90;;;;;;4940607;29;20041;-77
2022/03/21 06:36:15;;;;;;;63.50;30.73;;;2.80;99.90;;;;;;4938907;29;20058;-78
2022/03/21 06:38:40;;;;;;;62.53;31.42;;;2.90;99.90;;;;;;4954827;29;20414;-77
2022/03/21 06:41:10;;;;;;;60.45;31.90;;;2.90;99.90;;;;;;4937533;29;20051;-78
2022/03/21 06:43:35;;;;;;;68.03;33.63;;;3.00;99.90;;;;;;4937536;29;20055;-78
2022/03/21 06:46:02;;;;;;;64.30;33.05;;;3.10;99.90;;;;;;4953624;29;20109;-78
2022/03/21 06:48:29;;;;;;;64.47;31.40;;;3.20;99.90;;;;;;4953670;29;20503;-78
2022/03/21 06:50:56;;;;;;;63.38;31.98;;;3.20;99.90;;;;;;4953190;29;20055;-79
2022/03/21 06:53:23;;;;;;;68.47;34.13;;;3.30;99.90;;;;;;4965263;28;20598;-78
2022/03/21 06:55:49;;;;;;;62.97;32.03;;;3.40;99.90;;;;;;4940233;28;20051;-78
2022/03/21 06:58:15;;;;;;;62.03;32.35;;;3.50;99.90;;;;;;4940287;28;20047;-77
2022/03/21 07:00:43;;;;;;;68.93;33.90;;;3.60;99.90;;;;;;4955295;28;20138;-78
2022/03/21 07:03:14;;;;;;;63.90;34.63;;;3.70;99.90;;;;;;4940006;28;20085;-77
2022/03/21 07:05:40;;;;;;;57.22;30.45;;;3.90;99.90;;;;;;4940244;28;20077;-78
2022/03/21 07:08:12;;;;;;;62.22;31.08;;;3.90;99.90;;;;;;4971225;28;20426;-78
2022/03/21 07:10:44;;;;;;;64.65;32.83;;;4.10;99.90;;;;;;4973684;28;20568;-78
2022/03/21 07:13:35;;;;;;;65.80;32.60;;;4.20;99.90;;;;;;4960217;28;20468;-78
2022/03/21 07:16:02;;;;;;;55.67;29.88;;;4.30;99.90;;;;;;4939918;28;20054;-78
2022/03/21 07:18:31;;;;;;;58.47;31.00;;;4.50;99.90;;;;;;4973527;28;20042;-77
2022/03/21 07:20:56;;;;;;;56.17;30.70;;;4.60;99.90;;;;;;4955677;28;20433;-78
2022/03/21 07:23:25;;;;;;;61.35;31.88;;;4.70;99.90;;;;;;4924802;28;20055;-78
2022/03/21 07:25:55;;;;;;;46.55;27.88;;;4.80;99.90;;;;;;4940119;28;20046;-77
2022/03/21 07:28:20;;;;;;;57.53;30.20;;;5.00;99.90;;;;;;4955791;28;20073;-76
2022/03/21 07:31:13;;;;;;;52.38;29.70;;;5.10;99.90;;;;;;4972255;28;20509;-76
2022/03/21 07:33:58;;;;;;;53.22;28.90;;;5.30;99.90;;;;;;4916385;29;20530;-77
2022/03/21 07:36:25;;;;;;;50.45;29.40;;;5.40;99.90;;;;;;4899976;29;20052;-76
2022/03/21 07:39:14;;;;;;;45.92;26.95;;;5.50;99.90;;;;;;4919536;29;20064;-76
2022/03/21 07:41:39;;;;;;;46.90;29.15;;;5.70;99.90;;;;;;4916455;29;20059;-77
2022/03/21 07:44:06;;;;;;;46.97;28.50;;;5.90;99.90;;;;;;4916170;29;20059;-77
2022/03/21 07:49:17;;;;;;;48.13;28.50;;;6.20;99.90;;;;;;4932033;29;20644;-78
2022/03/21 07:51:43;;;;;;;47.58;28.25;;;6.30;99.90;;;;;;4900496;29;20047;-77
2022/03/21 07:54:17;;;;;;;45.10;28.65;;;6.40;99.90;;;;;;4931708;29;20062;-78
2022/03/21 07:56:44;;;;;;;48.40;29.33;;;6.60;99.90;;;;;;4899697;29;20444;-77
2022/03/21 07:59:16;;;;;;;44.45;26.67;;;6.70;99.90;;;;;;4900516;29;20051;-78
2022/03/21 08:01:42;;;;;;;43.83;27.88;;;6.80;99.90;;;;;;4914779;29;20060;-78
2022/03/21 08:04:09;;;;;;;46.20;27.27;;;6.90;99.90;;;;;;4953987;28;20397;-77
2022/03/21 08:06:36;;;;;;;46.35;28.98;;;7.00;99.90;;;;;;4955122;28;20864;-79
2022/03/21 08:09:06;;;;;;;53.45;28.67;;;7.10;99.90;;;;;;4923658;28;20446;-76
2022/03/21 08:11:34;;;;;;;43.30;28.73;;;7.30;99.90;;;;;;4969060;28;20090;-78
2022/03/21 08:14:01;;;;;;;45.88;28.95;;;7.40;99.90;;;;;;4954982;28;20047;-77
2022/03/21 08:16:30;;;;;;;43.28;27.77;;;7.50;99.90;;;;;;4956233;28;20058;-77
2022/03/21 08:18:57;;;;;;;48.10;29.92;;;7.70;99.90;;;;;;4955152;28;20061;-77
2022/03/21 08:21:23;;;;;;;47.58;28.65;;;7.80;99.90;;;;;;4939065;28;20109;-77
2022/03/21 08:23:49;;;;;;;52.83;30.73;;;7.90;99.90;;;;;;4955254;28;20043;-78
2022/03/21 08:26:19;;;;;;;41.95;28.35;;;8.00;99.90;;;;;;4939292;28;20066;-78
2022/03/21 08:28:47;;;;;;;47.33;29.33;;;8.10;99.90;;;;;;4923910;28;20046;-79
2022/03/21 08:31:13;;;;;;;48.60;29.65;;;8.20;99.90;;;;;;4955014;28;20046;-78
2022/03/21 08:33:41;;;;;;;43.58;27.77;;;8.40;99.90;;;;;;4955471;28;20058;-78
2022/03/21 08:36:08;;;;;;;45.45;27.67;;;8.50;99.90;;;;;;4972629;28;20059;-78
2022/03/21 08:38:34;;;;;;;40.65;26.05;;;8.70;99.90;;;;;;4955017;28;20050;-78
2022/03/21 08:41:00;;;;;;;42.33;24.27;;;8.80;99.90;;;;;;4955639;28;20051;-79
2022/03/21 08:43:27;;;;;;;41.67;24.95;;;8.90;99.90;;;;;;4955494;28;20050;-79
2022/03/21 08:45:54;;;;;;;39.72;25.73;;;9.10;99.90;;;;;;4926099;28;20062;-79
2022/03/21 08:51:28;;;;;;;35.88;23.08;;;9.50;99.90;;;;;;4938271;29;20455;-78
2022/03/21 08:53:53;;;;;;;40.72;24.45;;;9.60;99.90;;;;;;4938117;29;20047;-78
2022/03/21 08:56:22;;;;;;;44.83;26.20;;;9.80;99.90;;;;;;4954299;29;20144;-79
2022/03/21 08:58:51;;;;;;;40.17;25.52;;;10.00;99.90;;;;;;4938879;29;20047;-79
2022/03/21 09:01:17;;;;;;;40.55;26.10;;;10.20;99.90;;;;;;4953378;29;20069;-78
2022/03/21 09:04:05;;;;;;;42.70;25.65;;;10.30;99.90;;;;;;4922323;29;20055;-79
2022/03/21 09:06:32;;;;;;;39.63;25.02;;;10.40;99.90;;;;;;4918535;29;20118;-79
2022/03/21 09:09:09;;;;;;;40.10;23.80;;;10.60;99.90;;;;;;4918883;29;20059;-78
2022/03/21 09:11:35;;;;;;;49.53;24.60;;;10.70;99.90;;;;;;4919212;29;20044;-78
2022/03/21 09:14:02;;;;;;;41.05;23.85;;;10.80;99.90;;;;;;4919230;29;20122;-79
2022/03/21 09:16:28;;;;;;;45.72;25.83;;;11.00;99.90;;;;;;4934471;29;20051;-75
2022/03/21 09:18:54;;;;;;;34.90;23.20;;;11.10;99.90;;;;;;4937905;29;20384;-77
2022/03/21 09:21:20;;;;;;;44.78;24.20;;;11.20;99.90;;;;;;4937917;29;20058;-76
2022/03/21 09:23:46;;;;;;;44.78;25.73;;;11.30;99.90;;;;;;4938157;29;20051;-77
2022/03/21 09:26:12;;;;;;;39.63;24.63;;;11.50;99.90;;;;;;4954454;29;20048;-77
2022/03/21 09:29:05;;;;;;;38.40;23.88;;;11.60;99.90;;;;;;4937716;29;20091;-77
2022/03/21 09:31:39;;;;;;;37.85;22.15;;;11.70;99.90;;;;;;4937687;29;20055;-77
2022/03/21 09:34:11;;;;;;;37.65;23.25;;;11.80;99.90;;;;;;4937536;29;20391;-77
2022/03/21 09:36:37;;;;;;;37.78;23.52;;;11.90;99.90;;;;;;4908508;28;20055;-77
2022/03/21 09:39:10;;;;;;;35.53;22.85;;;12.00;99.90;;;;;;4956951;28;20106;-77
2022/03/21 09:41:45;;;;;;;33.10;21.42;;;12.20;99.90;;;;;;4973287;28;20584;-77
2022/03/21 09:44:11;;;;;;;;;;;12.40;99.90;;;;;;4958039;28;20374;-77
2022/03/21 09:48:08;;;;;;;32.13;20.90;;;12.40;99.90;;;;;;4957583;28;19925;-76
2022/03/21 09:49:48;;;;;;;38.97;21.20;;;12.60;99.90;;;;;;4946810;28;20055;-76
2022/03/21 09:52:15;;;;;;;35.97;21.02;;;12.90;99.90;;;;;;4957319;28;20498;-76
2022/03/21 09:54:42;;;;;;;32.90;21.20;;;13.00;99.90;;;;;;4956971;28;20150;-76
2022/03/21 09:57:08;;;;;;;32.97;21.42;;;13.20;99.90;;;;;;4973123;28;20477;-76
2022/03/21 09:59:33;;;;;;;33.22;20.88;;;13.30;99.90;;;;;;4957109;28;20082;-76
2022/03/21 10:02:02;;;;;;;34.08;21.08;;;13.50;99.90;;;;;;4975142;28;20086;-77
2022/03/21 10:04:31;;;;;;;32.40;20.35;;;13.60;99.20;;;;;;4957040;28;20109;-75
2022/03/21 10:07:00;;;;;;;32.88;20.50;;;13.80;98.30;;;;;;4941656;28;20082;-75
2022/03/21 10:09:26;;;;;;;33.03;20.48;;;14.00;96.70;;;;;;4957563;28;20073;-76
2022/03/21 10:11:58;;;;;;;30.05;19.88;;;14.00;96.50;;;;;;4957311;28;20141;-76
2022/03/21 10:14:27;;;;;;;29.02;17.83;;;14.20;96.00;;;;;;4974823;28;20050;-75
2022/03/21 10:16:54;;;;;;;28.10;18.98;;;14.30;92.80;;;;;;4957225;28;20478;-76
2022/03/21 10:19:25;;;;;;;28.95;17.67;;;14.40;93.20;;;;;;4941167;28;20051;-76
2022/03/21 10:22:13;;;;;;;26.17;17.08;;;14.50;92.50;;;;;;4957115;28;20120;-76
2022/03/21 10:24:46;;;;;;;34.17;16.25;;;14.50;80.10;;;;;;4957762;28;20038;-77
2022/03/21 10:27:44;;;;;;;25.77;14.35;;;14.60;81.70;;;;;;4941532;28;20498;-76
2022/03/21 10:30:15;;;;;;;21.38;12.13;;;14.70;68.30;;;;;;4941172;28;20089;-77
2022/03/21 10:32:50;;;;;;;23.80;15.10;;;14.80;68.40;;;;;;4956685;28;20070;-76
2022/03/21 10:35:24;;;;;;;21.98;13.48;;;14.90;67.40;;;;;;4974453;28;20098;-76
2022/03/21 10:37:58;;;;;;;26.73;14.55;;;15.00;62.40;;;;;;4956598;28;20057;-76
2022/03/21 10:40:45;;;;;;;24.23;14.18;;;15.10;67.60;;;;;;4940860;28;20047;-76
2022/03/21 10:43:14;;;;;;;23.75;15.65;;;15.20;61.50;;;;;;4940402;28;20058;-76
2022/03/21 10:45:54;;;;;;;28.95;14.63;;;15.40;67.10;;;;;;4956201;28;20051;-76
2022/03/21 10:48:41;;;;;;;21.58;13.90;;;15.40;58.20;;;;;;4956621;28;20059;-76
2022/03/21 10:51:13;;;;;;;23.25;14.75;;;15.70;61.00;;;;;;4954592;28;20532;-76
2022/03/21 10:53:53;;;;;;;26.73;14.85;;;16.00;58.20;;;;;;4973675;28;20058;-77
2022/03/21 10:56:18;;;;;;;30.27;15.65;;;16.30;56.50;;;;;;4940568;28;20154;-76
2022/03/21 10:58:49;;;;;;;25.30;15.93;;;16.30;56.90;;;;;;4940448;28;20133;-76
2022/03/21 11:01:29;;;;;;;24.33;17.27;;;16.50;57.20;;;;;;4956433;28;20054;-76
2022/03/21 11:04:14;;;;;;;27.50;15.93;;;16.40;51.70;;;;;;4959400;28;20097;-76
2022/03/21 11:06:45;;;;;;;23.70;15.95;;;16.20;54.40;;;;;;4940741;28;20055;-76
2022/03/21 11:09:11;;;;;;;24.52;15.23;;;16.60;53.80;;;;;;4956176;28;20089;-76
2022/03/21 11:11:38;;;;;;;24.73;16.33;;;16.70;53.50;;;;;;4973495;28;20042;-77
2022/03/21 11:14:03;;;;;;;27.95;17.10;;;16.90;51.80;;;;;;4973493;28;20422;-76
2022/03/21 11:16:29;;;;;;;21.98;15.02;;;16.80;51.50;;;;;;4955736;28;20050;-76
2022/03/21 11:19:07;;;;;;;27.70;16.67;;;16.60;52.40;;;;;;4956855;28;20046;-76
2022/03/21 11:21:39;;;;;;;;;;;16.50;50.20;;;;;;4940378;28;20043;-76
2022/03/21 11:24:09;;;;;;;21.33;14.70;;;16.40;49.50;;;;;;4955878;28;19922;-76
2022/03/21 11:26:55;;;;;;;22.20;15.70;;;16.70;53.20;;;;;;4940360;28;20055;-76
2022/03/21 11:29:37;;;;;;;24.70;15.15;;;17.70;50.60;;;;;;4956126;28;20058;-76
2022/03/21 11:32:40;;;;;;;23.25;15.57;;;18.40;47.30;;;;;;4955787;28;20181;-76
2022/03/21 11:35:33;;;;;;;24.48;15.65;;;18.60;45.70;;;;;;4955842;28;20145;-76
2022/03/21 11:38:29;;;;;;;20.55;14.32;;;19.40;45.10;;;;;;4940406;28;20047;-76
2022/03/21 11:41:21;;;;;;;21.65;14.45;;;19.40;42.30;;;;;;4972216;28;20518;-76
2022/03/21 11:44:14;;;;;;;22.35;14.57;;;19.40;42.20;;;;;;4955544;28;20059;-76
2022/03/21 11:46:44;;;;;;;22.90;16.10;;;19.50;41.60;;;;;;4955574;28;20491;-76
2022/03/21 11:49:22;;;;;;;23.92;15.57;;;19.10;42.50;;;;;;4973268;28;20137;-76
2022/03/21 11:52:02;;;;;;;22.35;14.95;;;19.00;42.70;;;;;;4955896;28;20405;-76
2022/03/21 11:54:37;;;;;;;20.50;14.25;;;18.80;40.10;;;;;;4939793;28;20383;-76
2022/03/21 11:57:33;;;;;;;20.65;13.88;;;19.40;42.90;;;;;;4940707;28;20508;-77
2022/03/21 12:00:26;;;;;;;20.02;13.73;;;20.30;40.80;;;;;;4916128;29;20083;-77
2022/03/21 12:02:56;;;;;;;22.17;14.47;;;20.30;39.00;;;;;;4881891;29;20591;-76
2022/03/21 12:05:37;;;;;;;20.58;13.07;;;21.00;39.70;;;;;;4897331;29;20360;-76
2022/03/21 12:08:43;;;;;;;18.75;13.15;;;21.10;37.40;;;;;;4897517;29;20135;-76
2022/03/21 12:11:09;;;;;;;18.08;13.35;;;21.60;36.20;;;;;;4808039;29;20114;-74
2022/03/21 12:13:42;;;;;;;18.67;13.63;;;22.20;38.00;;;;;;4838438;29;20042;-75
2022/03/21 12:16:18;;;;;;;19.08;13.38;;;22.00;36.20;;;;;;4823458;29;20054;-75
2022/03/21 12:19:02;;;;;;;17.48;12.10;;;22.20;35.20;;;;;;4838286;29;20518;-75
2022/03/21 12:21:28;;;;;;;19.50;12.68;;;22.70;35.20;;;;;;4827077;29;20083;-76
2022/03/21 12:24:18;;;;;;;18.88;12.55;;;22.70;35.40;;;;;;4826752;29;20054;-76
2022/03/21 12:26:49;;;;;;;38.97;13.65;;;22.40;33.90;;;;;;4841941;29;20141;-76
2022/03/21 12:29:36;;;;;;;19.73;13.27;;;22.70;33.70;;;;;;4841797;29;20061;-75
2022/03/21 12:32:24;;;;;;;19.25;13.95;;;23.60;32.90;;;;;;4876927;29;20113;-75
2022/03/21 12:35:01;;;;;;;20.15;14.43;;;23.70;31.70;;;;;;4878954;29;20056;-75
2022/03/21 12:37:36;;;;;;;19.42;12.98;;;24.10;32.90;;;;;;4878889;29;20057;-76
2022/03/21 12:40:21;;;;;;;18.20;13.52;;;23.30;32.60;;;;;;4863099;29;20139;-76
2022/03/21 12:42:47;;;;;;;21.83;14.02;;;24.10;32.20;;;;;;4878887;29;20101;-75
2022/03/21 12:45:20;;;;;;;21.02;12.75;;;24.70;31.00;;;;;;4878406;29;20497;-75
2022/03/21 12:47:48;;;;;;;20.98;13.15;;;25.60;30.90;;;;;;4937241;29;20094;-75
2022/03/21 12:50:21;;;;;;;21.92;14.38;;;26.10;29.80;;;;;;4923728;29;20086;-77
2022/03/21 12:53:06;;;;;;;21.35;14.02;;;26.20;28.70;;;;;;4938408;28;20062;-75
2022/03/21 12:55:37;;;;;;;20.50;14.05;;;26.60;28.70;;;;;;4920760;29;20134;-75
2022/03/21 12:58:06;;;;;;;17.23;12.45;;;26.90;28.50;;;;;;4920377;29;20103;-75
2022/03/21 13:00:35;;;;;;;17.63;13.18;;;27.00;29.40;;;;;;4923812;29;20510;-75
2022/03/21 13:03:04;;;;;;;18.13;12.85;;;27.10;29.00;;;;;;4939474;29;20113;-75
2022/03/21 13:11:32;;;;;;;20.25;13.85;;;28.10;27.90;;;;;;4939256;29;20050;-75
2022/03/21 13:14:14;;;;;;;19.38;13.20;;;28.70;28.10;;;;;;4923006;29;20047;-75
2022/03/21 13:16:57;;;;;;;19.90;13.93;;;28.80;27.60;;;;;;4938593;29;20055;-75
2022/03/21 13:19:43;;;;;;;22.73;14.65;;;28.60;28.90;;;;;;4939231;29;20051;-75
2022/03/21 13:22:09;;;;;;;19.52;14.25;;;29.10;26.50;;;;;;4938757;29;20051;-74
2022/03/21 13:25:01;;;;;;;20.92;12.73;;;28.30;27.50;;;;;;4923013;29;20074;-75
2022/03/21 13:27:36;;;;;;;21.10;14.00;;;28.60;27.10;;;;;;4922927;29;20419;-75